createdAt,value
2022-10-13T00:00:47.761Z,81.86
2022-10-13T00:03:14.823Z,81.65
2022-10-13T00:05:42.577Z,80.93
2022-10-13T00:08:09.689Z,81.24
2022-10-13T00:10:42.074Z,81.78
2022-10-13T00:13:11.498Z,81.76
2022-10-13T00:15:43.536Z,82.35
2022-10-13T00:18:09.952Z,82.20
2022-10-13T00:20:41.652Z,81.74
2022-10-13T00:23:08.736Z,81.03
2022-10-13T00:25:35.194Z,82.13
2022-10-13T00:28:01.593Z,81.76
2022-10-13T00:30:34.736Z,81.80
2022-10-13T00:33:01.230Z,81.28
2022-10-13T00:35:27.787Z,80.12
2022-10-13T00:37:54.232Z,80.34
2022-10-13T00:40:20.636Z,80.02
2022-10-13T00:42:47.290Z,81.08
2022-10-13T00:45:27.126Z,81.51
2022-10-13T00:47:57.833Z,82.32
2022-10-13T00:50:33.579Z,82.54
2022-10-13T00:53:02.802Z,80.94
2022-10-13T00:55:36.046Z,80.69
2022-10-13T00:58:06.241Z,80.34
2022-10-13T01:00:34.609Z,80.37
2022-10-13T01:03:02.095Z,80.19
2022-10-13T01:05:29.584Z,79.36
2022-10-13T01:07:57.789Z,78.82
2022-10-13T01:10:39.839Z,78.84
2022-10-13T01:13:40.846Z,79.18
2022-10-13T01:16:33.212Z,79.25
2022-10-13T01:19:41.147Z,79.76
2022-10-13T01:22:16.982Z,79.98
2022-10-13T01:24:59.187Z,80.50
2022-10-13T01:27:41.836Z,81.67
2022-10-13T01:30:16.947Z,82.54
2022-10-13T01:33:01.991Z,81.43
2022-10-13T01:35:47.301Z,81.91
2022-10-13T01:38:21.924Z,80.88
2022-10-13T01:41:32.413Z,80.77
2022-10-13T01:44:16.143Z,81.39
2022-10-13T01:46:54.195Z,82.30
2022-10-13T01:49:25.921Z,82.42
2022-10-13T01:51:54.992Z,82.43
2022-10-13T01:54:22.024Z,82.25
2022-10-13T01:56:53.156Z,82.06
2022-10-13T01:59:20.087Z,81.71
2022-10-13T02:02:07.898Z,82.47
2022-10-13T02:04:43.070Z,82.72
2022-10-13T02:07:27.227Z,82.57
2022-10-13T02:10:12.954Z,83.22
2022-10-13T02:12:55.947Z,83.44
2022-10-13T02:15:29.750Z,83.09
2022-10-13T02:18:01.532Z,83.47
2022-10-13T02:20:28.521Z,83.86
2022-10-13T02:23:01.170Z,85.12
2022-10-13T02:25:28.795Z,85.66
2022-10-13T02:27:57.625Z,84.73
2022-10-13T02:30:27.534Z,86.12
2022-10-13T02:32:54.481Z,86.05
2022-10-13T02:35:21.101Z,86.10
2022-10-13T02:37:47.503Z,86.17
2022-10-13T02:40:14.092Z,85.26
2022-10-13T02:42:40.680Z,85.66
2022-10-13T02:45:07.981Z,86.17
2022-10-13T02:47:34.370Z,85.61
2022-10-13T02:50:04.729Z,85.63
2022-10-13T02:52:31.260Z,85.27
2022-10-13T02:54:57.656Z,84.82
2022-10-13T02:57:24.581Z,84.76
2022-10-13T02:59:52.109Z,84.66
2022-10-13T03:02:19.241Z,84.52
2022-10-13T03:04:47.086Z,84.13
2022-10-13T03:07:13.460Z,83.70
2022-10-13T03:09:39.902Z,83.32
2022-10-13T03:12:06.641Z,83.30
2022-10-13T03:14:35.272Z,83.71
2022-10-13T03:17:01.997Z,83.99
2022-10-13T03:19:28.393Z,83.65
2022-10-13T03:21:55.144Z,84.27
2022-10-13T03:24:21.696Z,84.12
2022-10-13T03:26:48.114Z,84.72
2022-10-13T03:29:16.921Z,84.65
2022-10-13T03:31:43.486Z,84.87
2022-10-13T03:34:12.726Z,85.14
2022-10-13T03:36:39.340Z,85.16
2022-10-13T03:39:06.581Z,84.92
2022-10-13T03:41:33.080Z,85.55
2022-10-13T03:43:59.520Z,85.71
2022-10-13T03:46:30.294Z,85.39
2022-10-13T03:48:57.870Z,85.91
2022-10-13T03:51:30.298Z,84.98
2022-10-13T03:53:56.746Z,85.16
2022-10-13T03:56:25.494Z,84.42
2022-10-13T03:58:56.549Z,84.29
2022-10-13T04:01:25.473Z,84.11
2022-10-13T04:03:52.794Z,84.01
2022-10-13T04:06:19.484Z,84.25
2022-10-13T04:08:45.961Z,83.31
2022-10-13T04:11:14.282Z,83.17
2022-10-13T04:13:42.871Z,83.66
2022-10-13T04:16:14.164Z,84.14
2022-10-13T04:18:44.525Z,84.00
2022-10-13T04:21:14.618Z,83.39
2022-10-13T04:23:41.144Z,83.41
2022-10-13T04:26:14.416Z,83.91
2022-10-13T04:28:40.897Z,85.09
2022-10-13T04:31:07.357Z,84.83
2022-10-13T04:33:34.501Z,86.74
2022-10-13T04:36:04.481Z,86.59
2022-10-13T04:38:30.954Z,86.75
2022-10-13T04:40:57.381Z,86.62
2022-10-13T04:43:27.787Z,86.12
2022-10-13T04:46:09.937Z,86.27
2022-10-13T04:48:36.342Z,85.86
2022-10-13T04:51:05.276Z,85.67
2022-10-13T04:53:31.944Z,86.05
2022-10-13T04:56:04.426Z,86.47
2022-10-13T04:58:32.401Z,87.05
2022-10-13T05:01:01.774Z,86.67
2022-10-13T05:03:28.737Z,86.94
2022-10-13T05:05:55.119Z,87.39
2022-10-13T05:08:22.672Z,87.87
2022-10-13T05:11:01.349Z,88.43
2022-10-13T05:13:29.541Z,88.67
2022-10-13T05:15:57.092Z,88.43
2022-10-13T05:18:24.246Z,87.67
2022-10-13T05:20:51.791Z,87.16
2022-10-13T05:23:18.989Z,86.88
2022-10-13T05:25:46.201Z,86.73
2022-10-13T05:28:14.527Z,86.16
2022-10-13T05:30:41.077Z,84.75
2022-10-13T05:33:07.439Z,84.69
2022-10-13T05:35:33.858Z,84.33
2022-10-13T05:38:00.297Z,84.13
2022-10-13T05:40:28.334Z,83.98
2022-10-13T05:42:59.766Z,84.23
2022-10-13T05:45:29.345Z,84.26
2022-10-13T05:47:55.824Z,84.43
2022-10-13T05:50:22.320Z,84.14
2022-10-13T05:52:49.066Z,83.74
2022-10-13T05:55:17.758Z,83.36
2022-10-13T05:57:51.717Z,83.53
2022-10-13T06:00:20.049Z,84.32
2022-10-13T06:02:51.498Z,84.87
2022-10-13T06:05:21.464Z,84.39
2022-10-13T06:07:53.494Z,83.85
2022-10-13T06:10:20.189Z,83.11
2022-10-13T06:12:46.926Z,83.72
2022-10-13T06:15:13.352Z,83.30
2022-10-13T06:17:39.998Z,83.64
2022-10-13T06:20:08.769Z,84.27
2022-10-13T06:22:37.294Z,84.42
2022-10-13T06:25:06.077Z,84.85
2022-10-13T06:27:32.883Z,84.95
2022-10-13T06:29:59.296Z,83.97
2022-10-13T06:32:25.712Z,84.41
2022-10-13T06:34:52.349Z,84.95
2022-10-13T06:37:21.228Z,84.41
2022-10-13T06:39:51.257Z,84.27
2022-10-13T06:42:18.641Z,84.42
2022-10-13T06:44:46.335Z,84.17
2022-10-13T06:47:12.742Z,84.47
2022-10-13T06:49:40.242Z,84.94
2022-10-13T06:52:10.428Z,84.69
2022-10-13T06:54:37.606Z,84.18
2022-10-13T06:57:06.581Z,84.06
2022-10-13T06:59:33.203Z,84.50
2022-10-13T07:01:59.750Z,84.50
2022-10-13T07:04:27.868Z,84.58
2022-10-13T07:06:56.883Z,85.04
2022-10-13T07:09:23.550Z,85.05
2022-10-13T07:11:50.258Z,84.96
2022-10-13T07:14:16.745Z,85.30
2022-10-13T07:16:43.307Z,85.30
2022-10-13T07:19:09.834Z,85.12
2022-10-13T07:21:37.093Z,85.81
2022-10-13T07:24:04.052Z,85.66
2022-10-13T07:26:32.412Z,84.76
2022-10-13T07:28:58.914Z,85.86
2022-10-13T07:31:25.485Z,86.35
2022-10-13T07:33:51.993Z,86.28
2022-10-13T07:36:22.652Z,86.40
2022-10-13T07:38:50.927Z,85.86
2022-10-13T07:41:17.462Z,85.28
2022-10-13T07:43:43.952Z,85.07
2022-10-13T07:46:13.037Z,84.91
2022-10-13T07:48:39.858Z,85.21
2022-10-13T07:51:08.714Z,84.52
2022-10-13T07:53:35.894Z,84.78
2022-10-13T07:56:05.121Z,84.95
2022-10-13T07:58:32.040Z,84.93
2022-10-13T08:01:00.070Z,85.02
2022-10-13T08:03:28.303Z,84.92
2022-10-13T08:05:55.315Z,85.58
2022-10-13T08:08:22.321Z,85.35
2022-10-13T08:10:48.829Z,85.58
2022-10-13T08:13:15.494Z,86.10
2022-10-13T08:15:43.159Z,87.14
2022-10-13T08:18:11.887Z,88.11
2022-10-13T08:20:46.056Z,87.42
2022-10-13T08:23:13.404Z,87.16
2022-10-13T08:25:48.126Z,87.94
2022-10-13T08:28:28.884Z,88.12
2022-10-13T08:30:59.927Z,87.99
2022-10-13T08:33:27.156Z,88.56
2022-10-13T08:35:53.811Z,88.31
2022-10-13T08:38:21.193Z,87.68
2022-10-13T08:40:49.366Z,89.51
2022-10-13T08:43:19.746Z,90.42
2022-10-13T08:45:49.629Z,90.93
2022-10-13T08:48:20.041Z,91.03
2022-10-13T08:50:50.976Z,90.91
2022-10-13T08:53:28.143Z,91.64
2022-10-13T08:56:17.566Z,91.58
2022-10-13T08:58:47.492Z,91.42
2022-10-13T09:01:16.916Z,90.87
2022-10-13T09:04:22.441Z,91.06
2022-10-13T09:06:54.972Z,90.89
2022-10-13T09:09:21.579Z,91.29
2022-10-13T09:11:49.927Z,90.79
2022-10-13T09:14:34.354Z,90.85
2022-10-13T09:17:17.730Z,90.89
2022-10-13T09:19:56.807Z,90.77
2022-10-13T09:22:32.327Z,90.92
2022-10-13T09:25:08.143Z,90.71
2022-10-13T09:27:53.201Z,90.74
2022-10-13T09:30:28.740Z,90.56
2022-10-13T09:33:04.789Z,90.64
2022-10-13T09:35:34.238Z,90.67
2022-10-13T09:38:06.308Z,90.55
2022-10-13T09:40:33.986Z,90.41
2022-10-13T09:43:04.044Z,90.67
2022-10-13T09:45:30.950Z,90.37
2022-10-13T09:48:01.688Z,90.60
2022-10-13T09:50:31.857Z,91.11
2022-10-13T09:53:26.526Z,91.17
2022-10-13T09:56:08.526Z,91.03
2022-10-13T09:58:42.147Z,90.99
2022-10-13T10:01:19.401Z,91.11
2022-10-13T10:03:46.640Z,91.39
2022-10-13T10:06:16.880Z,91.76
2022-10-13T10:09:13.775Z,91.61
2022-10-13T10:11:50.001Z,91.44
2022-10-13T10:14:25.382Z,91.47
2022-10-13T10:17:02.668Z,91.05
2022-10-13T10:19:47.802Z,91.08
2022-10-13T10:22:40.152Z,91.03
2022-10-13T10:25:22.920Z,90.83
2022-10-13T10:28:04.949Z,89.96
2022-10-13T10:30:36.965Z,89.45
2022-10-13T10:33:16.937Z,90.49
2022-10-13T10:35:58.752Z,91.45
2022-10-13T10:38:40.574Z,91.76
2022-10-13T10:41:16.125Z,92.08
2022-10-13T10:43:53.071Z,90.27
2022-10-13T10:46:26.354Z,88.65
2022-10-13T10:48:57.042Z,88.59
2022-10-13T10:51:28.037Z,86.02
2022-10-13T10:54:06.363Z,85.39
2022-10-13T10:56:44.559Z,84.08
2022-10-13T10:59:25.857Z,83.06
2022-10-13T11:02:08.553Z,82.78
2022-10-13T11:04:47.246Z,81.64
2022-10-13T11:07:22.815Z,81.90
2022-10-13T11:09:53.928Z,81.51
2022-10-13T11:12:20.781Z,82.08
2022-10-13T11:15:08.373Z,81.08
2022-10-13T11:17:37.846Z,80.89
2022-10-13T11:20:25.331Z,81.97
2022-10-13T11:22:57.489Z,81.98
2022-10-13T11:25:42.292Z,81.82
2022-10-13T11:28:20.941Z,79.54
2022-10-13T11:30:51.173Z,78.56
2022-10-13T11:33:37.009Z,77.90
2022-10-13T11:36:41.224Z,77.74
2022-10-13T11:39:27.480Z,78.57
2022-10-13T11:42:09.511Z,79.00
2022-10-13T11:44:57.477Z,79.01
2022-10-13T11:47:33.667Z,79.71
2022-10-13T11:50:21.373Z,80.99
2022-10-13T11:53:07.742Z,81.27
2022-10-13T11:55:39.583Z,80.96
2022-10-13T11:58:10.508Z,81.13
2022-10-13T12:00:40.813Z,81.18
2022-10-13T12:03:24.532Z,81.50
2022-10-13T12:05:55.529Z,81.45
2022-10-13T12:08:22.309Z,81.95
2022-10-13T12:10:57.467Z,81.64
2022-10-13T12:13:27.622Z,82.15
2022-10-13T12:16:00.683Z,83.54
2022-10-13T12:18:34.386Z,83.17
2022-10-13T12:21:04.184Z,82.38
2022-10-13T12:23:33.018Z,81.84
2022-10-13T12:26:00.222Z,81.87
2022-10-13T12:28:30.938Z,81.75
2022-10-13T12:30:59.865Z,81.81
2022-10-13T12:33:35.700Z,81.76
2022-10-13T12:36:19.011Z,81.49
2022-10-13T12:38:51.276Z,81.99
2022-10-13T12:41:26.461Z,81.86
2022-10-13T12:43:54.277Z,82.35
2022-10-13T12:46:42.341Z,82.25
2022-10-13T12:51:50.737Z,82.53
2022-10-13T12:54:21.153Z,82.84
2022-10-13T12:56:55.410Z,82.97
2022-10-13T12:59:24.169Z,82.73
2022-10-13T13:01:57.212Z,82.16
2022-10-13T13:04:32.092Z,82.67
2022-10-13T13:07:05.204Z,82.31
2022-10-13T13:09:38.826Z,82.54
2022-10-13T13:12:11.439Z,82.55
2022-10-13T13:14:39.055Z,82.90
2022-10-13T13:17:38.842Z,82.46
2022-10-13T13:20:29.981Z,82.25
2022-10-13T13:22:57.173Z,82.46
2022-10-13T13:25:24.212Z,81.60
2022-10-13T13:27:52.660Z,81.06
2022-10-13T13:30:22.263Z,80.89
2022-10-13T13:32:51.513Z,81.19
2022-10-13T13:35:18.867Z,81.39
2022-10-13T13:37:51.161Z,81.24
2022-10-13T13:40:24.237Z,80.40
2022-10-13T13:42:51.280Z,80.42
2022-10-13T13:45:21.027Z,80.26
2022-10-13T13:47:49.452Z,80.46
2022-10-13T13:50:23.683Z,81.30
2022-10-13T13:52:56.403Z,81.18
2022-10-13T13:55:26.943Z,81.63
2022-10-13T13:57:53.989Z,81.64
2022-10-13T14:00:21.162Z,82.12
2022-10-13T14:02:54.461Z,82.70
2022-10-13T14:05:20.897Z,82.51
2022-10-13T14:07:47.525Z,82.77
2022-10-13T14:10:14.785Z,82.80
2022-10-13T14:12:41.323Z,82.80
2022-10-13T14:15:09.164Z,82.76
2022-10-13T14:17:35.738Z,82.81
2022-10-13T14:20:02.558Z,82.64
2022-10-13T14:22:29.139Z,82.53
2022-10-13T14:24:55.924Z,83.18
2022-10-13T14:27:23.181Z,82.87
2022-10-13T14:29:51.312Z,83.22
2022-10-13T14:32:19.360Z,82.96
2022-10-13T14:34:46.624Z,83.01
2022-10-13T14:37:14.126Z,83.20
2022-10-13T14:39:40.968Z,83.23
2022-10-13T14:42:07.704Z,83.22
2022-10-13T14:44:34.131Z,83.45
2022-10-13T14:47:00.872Z,82.96
2022-10-13T14:49:27.658Z,83.34
2022-10-13T14:51:54.490Z,83.23
2022-10-13T14:54:21.740Z,83.60
2022-10-13T14:56:48.430Z,83.79
2022-10-13T14:59:15.520Z,84.08
2022-10-13T15:01:44.042Z,85.61
2022-10-13T15:04:11.174Z,85.60
2022-10-13T15:06:41.762Z,86.16
2022-10-13T15:11:36.334Z,86.32
2022-10-13T15:14:03.400Z,87.13
2022-10-13T15:16:33.807Z,86.50
2022-10-13T15:19:01.590Z,86.56
2022-10-13T15:21:28.263Z,86.41
2022-10-13T15:23:55.942Z,86.66
2022-10-13T15:26:22.978Z,86.06
2022-10-13T15:28:52.080Z,86.25
2022-10-13T15:31:21.088Z,86.41
2022-10-13T15:33:51.648Z,86.12
2022-10-13T15:36:22.107Z,86.19
2022-10-13T15:38:48.858Z,86.09
2022-10-13T15:41:16.194Z,86.43
2022-10-13T15:43:43.113Z,86.50
2022-10-13T15:46:22.717Z,86.56
2022-10-13T15:48:51.393Z,86.92
2022-10-13T15:51:21.970Z,86.83
2022-10-13T15:53:51.182Z,86.96
2022-10-13T15:56:18.232Z,87.15
2022-10-13T15:58:45.996Z,86.93
2022-10-13T16:01:14.602Z,87.06
2022-10-13T16:03:41.685Z,87.67
2022-10-13T16:06:11.716Z,87.52
2022-10-13T16:08:44.353Z,87.26
2022-10-13T16:11:13.655Z,87.80
2022-10-13T16:13:42.086Z,87.57
2022-10-13T16:16:08.861Z,87.55
2022-10-13T16:18:37.361Z,87.45
2022-10-13T16:21:19.571Z,87.65
2022-10-13T16:23:47.822Z,87.38
2022-10-13T16:26:15.284Z,88.04
2022-10-13T16:28:42.199Z,87.52
2022-10-13T16:31:14.300Z,87.81
2022-10-13T16:33:44.769Z,88.09
2022-10-13T16:36:15.154Z,88.00
2022-10-13T16:38:42.562Z,87.65
2022-10-13T16:41:13.186Z,87.48
2022-10-13T16:43:39.796Z,87.78
2022-10-13T16:46:08.295Z,88.00
2022-10-13T16:48:35.729Z,87.78
2022-10-13T16:51:12.428Z,87.95
2022-10-13T16:53:39.346Z,87.74
2022-10-13T16:56:07.890Z,88.38
2022-10-13T16:58:35.008Z,88.23
2022-10-13T17:01:08.747Z,88.47
2022-10-13T17:03:36.753Z,88.24
2022-10-13T17:06:03.912Z,88.85
2022-10-13T17:08:31.019Z,89.00
2022-10-13T17:11:00.375Z,88.91
2022-10-13T17:13:28.118Z,88.62
2022-10-13T17:15:56.762Z,91.14
2022-10-13T17:18:25.090Z,90.67
2022-10-13T17:21:06.449Z,90.81
2022-10-13T17:23:33.652Z,89.28
2022-10-13T17:26:02.957Z,88.94
2022-10-13T17:28:32.382Z,88.43
2022-10-13T17:31:05.175Z,88.03
2022-10-13T17:33:35.068Z,88.32
2022-10-13T17:36:05.152Z,88.14
2022-10-13T17:38:34.143Z,88.65
2022-10-13T17:41:03.206Z,88.89
2022-10-13T17:43:32.329Z,88.74
2022-10-13T17:46:35.194Z,89.30
2022-10-13T17:49:00.476Z,89.68
2022-10-13T17:51:28.417Z,89.36
2022-10-13T17:53:58.092Z,89.92
2022-10-13T17:56:25.040Z,89.68
2022-10-13T17:58:52.316Z,89.98
2022-10-13T18:01:21.635Z,89.79
2022-10-13T18:03:54.308Z,89.79
2022-10-13T18:06:37.679Z,89.69
2022-10-13T18:09:06.216Z,89.82
2022-10-13T18:11:33.776Z,90.20
2022-10-13T18:14:00.430Z,90.13
2022-10-13T18:16:27.246Z,90.66
2022-10-13T18:18:54.276Z,90.55
2022-10-13T18:21:26.457Z,91.03
2022-10-13T18:23:55.743Z,90.84
2022-10-13T18:26:24.990Z,90.78
2022-10-13T18:28:52.872Z,90.63
2022-10-13T18:31:28.059Z,90.59
2022-10-13T18:34:03.666Z,91.44
2022-10-13T18:36:33.464Z,90.84
2022-10-13T18:39:12.159Z,91.18
2022-10-13T18:41:40.174Z,90.70
2022-10-13T18:44:07.377Z,90.64
2022-10-13T18:46:35.731Z,91.08
2022-10-13T18:49:04.947Z,90.84
2022-10-13T18:51:36.152Z,90.41
2022-10-13T18:54:05.229Z,90.10
2022-10-13T18:56:32.960Z,90.49
2022-10-13T18:59:04.171Z,90.59
2022-10-13T19:01:34.058Z,90.54
2022-10-13T19:04:02.273Z,90.41
2022-10-13T19:06:31.436Z,90.85
2022-10-13T19:09:05.338Z,90.87
2022-10-13T19:11:36.457Z,90.59
2022-10-13T19:14:12.562Z,91.16
2022-10-13T19:16:42.255Z,91.56
2022-10-13T19:19:09.267Z,90.88
2022-10-13T19:21:37.529Z,91.62
2022-10-13T19:24:05.186Z,91.51
2022-10-13T19:26:35.270Z,91.38
2022-10-13T19:29:06.929Z,91.32
2022-10-13T19:31:35.381Z,90.97
2022-10-13T19:34:08.224Z,91.02
2022-10-13T19:36:43.358Z,91.02
2022-10-13T19:39:17.026Z,90.90
2022-10-13T19:41:45.735Z,90.84
2022-10-13T19:44:13.543Z,91.31
2022-10-13T19:46:43.942Z,90.84
2022-10-13T19:49:13.609Z,90.77
2022-10-13T19:51:45.117Z,90.77
2022-10-13T19:54:12.565Z,90.31
2022-10-13T19:56:46.135Z,90.07
2022-10-13T19:59:14.389Z,90.19
2022-10-13T20:01:41.184Z,89.73
2022-10-13T20:04:14.533Z,89.83
2022-10-13T20:06:43.486Z,89.90
2022-10-13T20:09:10.238Z,89.54
2022-10-13T20:11:37.838Z,89.71
2022-10-13T20:14:04.979Z,89.26
2022-10-13T20:16:31.465Z,89.10
2022-10-13T20:19:00.009Z,89.57
2022-10-13T20:21:28.608Z,89.51
2022-10-13T20:23:55.891Z,89.52
2022-10-13T20:26:24.466Z,89.80
2022-10-13T20:28:52.394Z,89.36
2022-10-13T20:31:21.935Z,89.31
2022-10-13T20:33:52.534Z,89.21
2022-10-13T20:36:22.129Z,89.42
2022-10-13T20:38:49.313Z,89.18
2022-10-13T20:41:27.030Z,89.42
2022-10-13T20:43:55.549Z,89.43
2022-10-13T20:46:23.912Z,89.40
2022-10-13T20:49:09.831Z,89.52
2022-10-13T20:51:39.615Z,89.38
2022-10-13T20:54:12.472Z,89.13
2022-10-13T20:56:39.989Z,88.97
2022-10-13T20:59:09.037Z,89.29
2022-10-13T21:01:37.098Z,88.89
2022-10-13T21:04:05.166Z,89.32
2022-10-13T21:06:31.693Z,89.49
2022-10-13T21:09:00.444Z,89.31
2022-10-13T21:11:27.350Z,89.26
2022-10-13T21:13:54.062Z,89.37
2022-10-13T21:16:23.657Z,89.38
2022-10-13T21:18:53.116Z,89.27
2022-10-13T21:21:22.901Z,89.05
2022-10-13T21:23:53.817Z,89.49
2022-10-13T21:26:22.578Z,89.48
2022-10-13T21:28:50.073Z,89.05
2022-10-13T21:31:20.910Z,89.59
2022-10-13T21:33:48.086Z,89.20
2022-10-13T21:36:20.747Z,89.05
2022-10-13T21:38:49.753Z,88.92
2022-10-13T21:41:18.114Z,89.11
2022-10-13T21:43:44.687Z,89.02
2022-10-13T21:46:17.519Z,89.10
2022-10-13T21:48:45.581Z,89.25
2022-10-13T21:51:14.193Z,89.27
2022-10-13T21:53:41.489Z,89.18
2022-10-13T21:56:09.942Z,89.07
2022-10-13T21:58:36.678Z,88.97
2022-10-13T22:01:06.588Z,89.42
2022-10-13T22:03:34.767Z,89.34
2022-10-13T22:06:15.907Z,89.58
2022-10-13T22:08:46.686Z,89.40
2022-10-13T22:11:26.058Z,89.88
2022-10-13T22:13:52.960Z,89.76
2022-10-13T22:16:24.476Z,89.70
2022-10-13T22:18:52.737Z,90.02
2022-10-13T22:21:22.633Z,89.79
2022-10-13T22:23:49.657Z,89.85
2022-10-13T22:26:18.701Z,89.84
2022-10-13T22:28:48.079Z,90.18
2022-10-13T22:31:15.049Z,90.60
2022-10-13T22:33:45.416Z,90.11
2022-10-13T22:36:20.353Z,90.45
2022-10-13T22:38:50.104Z,90.26
2022-10-13T22:41:20.013Z,90.47
2022-10-13T22:43:54.825Z,90.27
2022-10-13T22:46:25.696Z,90.36
2022-10-13T22:48:53.240Z,90.04
2022-10-13T22:51:21.569Z,90.11
2022-10-13T22:53:49.332Z,90.07
2022-10-13T22:56:22.729Z,90.24
2022-10-13T22:58:59.045Z,90.19
2022-10-13T23:01:27.064Z,90.25
2022-10-13T23:03:55.963Z,90.50
2022-10-13T23:06:25.025Z,90.47
2022-10-13T23:08:51.694Z,90.98
2022-10-13T23:11:19.273Z,90.87
2022-10-13T23:13:46.685Z,91.13
2022-10-13T23:16:20.754Z,90.99
2022-10-13T23:18:47.973Z,91.44
2022-10-13T23:21:26.874Z,91.50
2022-10-13T23:24:01.903Z,91.21
2022-10-13T23:26:30.303Z,91.56
2022-10-13T23:28:57.700Z,91.05
2022-10-13T23:31:25.944Z,91.36
2022-10-13T23:33:52.994Z,91.35
2022-10-13T23:36:22.566Z,91.38
2022-10-13T23:38:55.022Z,91.71
2022-10-13T23:41:21.938Z,91.51
2022-10-13T23:43:48.432Z,92.01
2022-10-13T23:46:14.985Z,92.03
2022-10-13T23:48:41.770Z,92.39
2022-10-13T23:51:12.440Z,92.19
2022-10-13T23:53:39.461Z,92.09
2022-10-13T23:56:11.018Z,92.23
2022-10-13T23:58:43.040Z,91.53
